sensor_id;sensor_type;location;lat;lon;timestamp;pressure;altitude;pressure_sealevel;temperature;humidity
31121;BME280;17770;45.966;13.632;2023-07-13T00:01:28;100178.44;;;32.98;40.76
31121;BME280;17770;45.966;13.632;2023-07-13T00:03:55;100153.13;;;33.01;40.56
31121;BME280;17770;45.966;13.632;2023-07-13T00:06:21;100149.28;;;33.03;40.51
31121;BME280;17770;45.966;13.632;2023-07-13T00:08:47;100152.94;;;33.02;40.48
31121;BME280;17770;45.966;13.632;2023-07-13T00:11:14;100175.16;;;33.03;40.35
31121;BME280;17770;45.966;13.632;2023-07-13T00:13:40;100199.44;;;33.01;40.50
31121;BME280;17770;45.966;13.632;2023-07-13T00:16:07;100221.00;;;33.00;40.59
31121;BME280;17770;45.966;13.632;2023-07-13T00:18:33;100236.84;;;33.01;40.36
31121;BME280;17770;45.966;13.632;2023-07-13T00:20:59;100276.13;;;33.01;40.58
31121;BME280;17770;45.966;13.632;2023-07-13T00:23:32;100346.84;;;32.98;40.64
31121;BME280;17770;45.966;13.632;2023-07-13T00:26:00;100383.84;;;32.95;40.72
31121;BME280;17770;45.966;13.632;2023-07-13T00:28:26;100371.50;;;32.94;40.64
31121;BME280;17770;45.966;13.632;2023-07-13T00:30:51;100339.13;;;32.89;40.74
31121;BME280;17770;45.966;13.632;2023-07-13T00:33:17;100309.06;;;32.87;40.91
31121;BME280;17770;45.966;13.632;2023-07-13T00:35:43;100310.06;;;32.86;40.64
31121;BME280;17770;45.966;13.632;2023-07-13T00:38:09;100274.31;;;32.87;40.99
31121;BME280;17770;45.966;13.632;2023-07-13T00:40:35;100248.59;;;32.86;40.43
31121;BME280;17770;45.966;13.632;2023-07-13T00:43:02;100234.41;;;32.85;40.31
31121;BME280;17770;45.966;13.632;2023-07-13T00:47:54;100198.19;;;32.83;40.35
31121;BME280;17770;45.966;13.632;2023-07-13T00:50:21;100235.81;;;32.81;40.33
31121;BME280;17770;45.966;13.632;2023-07-13T00:52:49;100403.19;;;32.82;39.91
31121;BME280;17770;45.966;13.632;2023-07-13T00:55:16;100627.72;;;32.82;39.85
31121;BME280;17770;45.966;13.632;2023-07-13T00:57:43;100737.47;;;32.81;39.97
31121;BME280;17770;45.966;13.632;2023-07-13T01:00:09;100613.88;;;32.79;39.91
31121;BME280;17770;45.966;13.632;2023-07-13T01:02:35;100476.06;;;32.10;41.49
31121;BME280;17770;45.966;13.632;2023-07-13T01:05:13;100381.78;;;31.95;41.54
31121;BME280;17770;45.966;13.632;2023-07-13T01:07:42;100383.53;;;31.88;41.92
31121;BME280;17770;45.966;13.632;2023-07-13T01:10:09;100380.03;;;31.88;41.78
31121;BME280;17770;45.966;13.632;2023-07-13T01:12:36;100370.50;;;31.85;41.90
31121;BME280;17770;45.966;13.632;2023-07-13T01:15:02;100375.03;;;31.84;42.40
31121;BME280;17770;45.966;13.632;2023-07-13T01:17:30;100385.72;;;31.84;41.97
31121;BME280;17770;45.966;13.632;2023-07-13T01:19:56;100411.72;;;31.82;42.49
31121;BME280;17770;45.966;13.632;2023-07-13T01:22:22;100413.38;;;31.83;42.48
31121;BME280;17770;45.966;13.632;2023-07-13T01:24:51;100395.06;;;31.80;41.90
31121;BME280;17770;45.966;13.632;2023-07-13T01:27:20;100395.06;;;31.80;42.07
31121;BME280;17770;45.966;13.632;2023-07-13T01:29:46;100387.06;;;31.80;41.91
31121;BME280;17770;45.966;13.632;2023-07-13T01:32:14;100395.06;;;31.80;41.78
31121;BME280;17770;45.966;13.632;2023-07-13T01:34:40;100386.22;;;31.80;41.91
31121;BME280;17770;45.966;13.632;2023-07-13T01:37:10;100376.56;;;31.79;42.18
31121;BME280;17770;45.966;13.632;2023-07-13T01:39:36;100374.09;;;31.77;42.27
31121;BME280;17770;45.966;13.632;2023-07-13T01:42:03;100383.28;;;31.75;42.77
31121;BME280;17770;45.966;13.632;2023-07-13T01:44:29;100407.94;;;31.77;42.11
31121;BME280;17770;45.966;13.632;2023-07-13T01:46:56;100455.16;;;31.76;42.67
31121;BME280;17770;45.966;13.632;2023-07-13T01:49:22;100493.50;;;31.75;42.23
31121;BME280;17770;45.966;13.632;2023-07-13T01:51:49;100574.56;;;31.74;42.77
31121;BME280;17770;45.966;13.632;2023-07-13T01:54:15;100561.22;;;31.74;42.56
31121;BME280;17770;45.966;13.632;2023-07-13T01:56:41;100515.22;;;31.72;42.73
31121;BME280;17770;45.966;13.632;2023-07-13T01:59:08;100491.38;;;31.71;42.23
31121;BME280;17770;45.966;13.632;2023-07-13T02:01:34;100440.38;;;31.66;42.41
31121;BME280;17770;45.966;13.632;2023-07-13T02:04:00;100372.47;;;31.68;42.89
31121;BME280;17770;45.966;13.632;2023-07-13T02:06:28;100331.84;;;31.66;42.67
31121;BME280;17770;45.966;13.632;2023-07-13T02:08:54;100304.69;;;31.63;42.59
31121;BME280;17770;45.966;13.632;2023-07-13T02:11:20;100321.34;;;31.65;42.57
31121;BME280;17770;45.966;13.632;2023-07-13T02:13:46;100342.69;;;31.65;42.74
31121;BME280;17770;45.966;13.632;2023-07-13T02:16:12;100318.88;;;31.63;43.03
31121;BME280;17770;45.966;13.632;2023-07-13T02:18:37;100320.69;;;31.63;42.54
31121;BME280;17770;45.966;13.632;2023-07-13T02:21:03;100336.06;;;31.61;43.06
31121;BME280;17770;45.966;13.632;2023-07-13T02:23:29;100309.19;;;31.62;42.92
31121;BME280;17770;45.966;13.632;2023-07-13T02:25:56;100329.06;;;31.60;42.71
31121;BME280;17770;45.966;13.632;2023-07-13T02:28:22;100330.06;;;31.59;42.51
31121;BME280;17770;45.966;13.632;2023-07-13T02:30:49;100278.38;;;31.60;43.11
31121;BME280;17770;45.966;13.632;2023-07-13T02:33:15;100252.06;;;31.57;42.77
31121;BME280;17770;45.966;13.632;2023-07-13T02:35:41;100258.22;;;31.57;43.15
31121;BME280;17770;45.966;13.632;2023-07-13T02:38:06;100263.75;;;31.56;42.98
31121;BME280;17770;45.966;13.632;2023-07-13T02:40:32;100249.38;;;31.57;42.98
31121;BME280;17770;45.966;13.632;2023-07-13T02:42:59;100240.75;;;31.55;43.23
31121;BME280;17770;45.966;13.632;2023-07-13T02:45:25;100232.09;;;31.53;42.65
31121;BME280;17770;45.966;13.632;2023-07-13T02:47:51;100242.78;;;31.53;43.03
31121;BME280;17770;45.966;13.632;2023-07-13T02:50:17;100257.75;;;31.54;43.29
31121;BME280;17770;45.966;13.632;2023-07-13T02:52:43;100253.63;;;31.51;43.35
31121;BME280;17770;45.966;13.632;2023-07-13T02:55:09;100243.94;;;31.50;42.81
31121;BME280;17770;45.966;13.632;2023-07-13T02:57:36;100232.66;;;31.48;42.80
31121;BME280;17770;45.966;13.632;2023-07-13T03:00:02;100231.81;;;31.48;43.35
31121;BME280;17770;45.966;13.632;2023-07-13T03:02:31;100247.66;;;31.49;43.11
31121;BME280;17770;45.966;13.632;2023-07-13T03:04:58;100256.19;;;31.45;43.49
31121;BME280;17770;45.966;13.632;2023-07-13T03:07:23;100263.19;;;31.46;43.33
31121;BME280;17770;45.966;13.632;2023-07-13T03:09:57;100263.34;;;31.44;43.07
31121;BME280;17770;45.966;13.632;2023-07-13T03:12:26;100255.53;;;31.43;43.13
31121;BME280;17770;45.966;13.632;2023-07-13T03:14:52;100269.72;;;31.43;43.55
31121;BME280;17770;45.966;13.632;2023-07-13T03:17:18;100271.53;;;31.43;43.27
31121;BME280;17770;45.966;13.632;2023-07-13T03:19:44;100278.06;;;31.40;43.64
31121;BME280;17770;45.966;13.632;2023-07-13T03:22:11;100265.94;;;31.38;43.29
31121;BME280;17770;45.966;13.632;2023-07-13T03:24:38;100261.44;;;31.38;43.54
31121;BME280;17770;45.966;13.632;2023-07-13T03:27:05;100259.13;;;31.35;43.49
31121;BME280;17770;45.966;13.632;2023-07-13T03:29:33;100261.94;;;31.34;43.40
31121;BME280;17770;45.966;13.632;2023-07-13T03:31:59;100260.13;;;31.34;43.58
31121;BME280;17770;45.966;13.632;2023-07-13T03:34:25;100268.13;;;31.34;43.05
31121;BME280;17770;45.966;13.632;2023-07-13T03:36:53;100265.78;;;31.31;43.66
31121;BME280;17770;45.966;13.632;2023-07-13T03:39:20;100258.81;;;31.30;43.64
31121;BME280;17770;45.966;13.632;2023-07-13T03:41:49;100243.63;;;31.31;43.10
31121;BME280;17770;45.966;13.632;2023-07-13T03:44:16;100241.97;;;31.30;43.71
31121;BME280;17770;45.966;13.632;2023-07-13T03:46:43;100256.28;;;31.29;43.02
31121;BME280;17770;45.966;13.632;2023-07-13T03:49:09;100270.66;;;31.28;43.47
31121;BME280;17770;45.966;13.632;2023-07-13T03:51:35;100267.31;;;31.26;43.77
31121;BME280;17770;45.966;13.632;2023-07-13T03:54:00;100279.66;;;31.27;43.09
31121;BME280;17770;45.966;13.632;2023-07-13T03:56:28;100275.69;;;31.23;43.56
31121;BME280;17770;45.966;13.632;2023-07-13T03:58:56;100266.03;;;31.22;43.80
31121;BME280;17770;45.966;13.632;2023-07-13T04:01:23;100262.34;;;31.23;43.61
31121;BME280;17770;45.966;13.632;2023-07-13T04:03:50;100252.91;;;31.20;42.96
31121;BME280;17770;45.966;13.632;2023-07-13T04:06:25;100250.41;;;31.19;43.64
31121;BME280;17770;45.966;13.632;2023-07-13T04:08:52;100264.72;;;31.18;43.72
31121;BME280;17770;45.966;13.632;2023-07-13T04:11:19;100266.56;;;31.17;43.53
31121;BME280;17770;45.966;13.632;2023-07-13T04:13:46;100261.59;;;31.14;43.64
31121;BME280;17770;45.966;13.632;2023-07-13T04:16:13;100266.13;;;31.14;43.72
31121;BME280;17770;45.966;13.632;2023-07-13T04:18:39;100263.97;;;31.09;43.05
31121;BME280;17770;45.966;13.632;2023-07-13T04:21:04;100270.13;;;31.10;43.64
31121;BME280;17770;45.966;13.632;2023-07-13T04:23:30;100279.97;;;31.09;43.39
31121;BME280;17770;45.966;13.632;2023-07-13T04:25:56;100276.50;;;31.09;43.55
31121;BME280;17770;45.966;13.632;2023-07-13T04:28:23;100275.00;;;31.06;43.36
31121;BME280;17770;45.966;13.632;2023-07-13T04:30:50;100286.66;;;31.05;43.39
31121;BME280;17770;45.966;13.632;2023-07-13T04:33:16;100293.66;;;31.06;43.56
31121;BME280;17770;45.966;13.632;2023-07-13T04:35:43;100298.00;;;31.07;43.64
31121;BME280;17770;45.966;13.632;2023-07-13T04:38:09;100302.66;;;31.05;43.09
31121;BME280;17770;45.966;13.632;2023-07-13T04:40:36;100306.13;;;31.06;43.13
31121;BME280;17770;45.966;13.632;2023-07-13T04:43:02;100305.50;;;31.04;43.30
31121;BME280;17770;45.966;13.632;2023-07-13T04:45:28;100293.16;;;31.03;43.12
31121;BME280;17770;45.966;13.632;2023-07-13T04:47:54;100308.16;;;31.04;43.46
31121;BME280;17770;45.966;13.632;2023-07-13T04:50:20;100302.19;;;31.02;43.16
31121;BME280;17770;45.966;13.632;2023-07-13T04:52:51;100301.34;;;31.01;42.92
31121;BME280;17770;45.966;13.632;2023-07-13T04:55:17;100303.16;;;31.01;43.19
31121;BME280;17770;45.966;13.632;2023-07-13T04:57:43;100294.53;;;30.99;43.07
31121;BME280;17770;45.966;13.632;2023-07-13T05:00:10;100295.53;;;30.98;43.70
31121;BME280;17770;45.966;13.632;2023-07-13T05:02:37;100303.53;;;30.98;43.06
31121;BME280;17770;45.966;13.632;2023-07-13T05:05:04;100295.91;;;30.95;43.22
31121;BME280;17770;45.966;13.632;2023-07-13T05:07:30;100293.06;;;30.96;43.67
31121;BME280;17770;45.966;13.632;2023-07-13T05:09:56;100302.25;;;30.94;43.77
31121;BME280;17770;45.966;13.632;2023-07-13T05:12:22;100299.75;;;30.92;43.71
31121;BME280;17770;45.966;13.632;2023-07-13T05:14:47;100303.41;;;30.91;43.68
31121;BME280;17770;45.966;13.632;2023-07-13T05:17:15;100293.94;;;30.89;43.74
31121;BME280;17770;45.966;13.632;2023-07-13T05:19:41;100300.94;;;30.90;43.47
31121;BME280;17770;45.966;13.632;2023-07-13T05:22:06;100304.59;;;30.89;43.23
31121;BME280;17770;45.966;13.632;2023-07-13T05:24:32;100300.63;;;30.85;43.17
31121;BME280;17770;45.966;13.632;2023-07-13T05:26:58;100307.81;;;30.84;43.12
31121;BME280;17770;45.966;13.632;2023-07-13T05:29:24;100306.13;;;30.83;43.10
31121;BME280;17770;45.966;13.632;2023-07-13T05:31:50;100310.63;;;30.83;43.74
31121;BME280;17770;45.966;13.632;2023-07-13T05:34:16;100313.13;;;30.84;43.22
31121;BME280;17770;45.966;13.632;2023-07-13T05:36:42;100315.16;;;30.82;43.65
31121;BME280;17770;45.966;13.632;2023-07-13T05:39:08;100313.66;;;30.80;43.68
31121;BME280;17770;45.966;13.632;2023-07-13T05:41:35;100310.81;;;30.81;43.27
31121;BME280;17770;45.966;13.632;2023-07-13T05:44:01;100309.34;;;30.79;43.86
31121;BME280;17770;45.966;13.632;2023-07-13T05:46:27;100308.50;;;30.78;43.24
31121;BME280;17770;45.966;13.632;2023-07-13T05:48:52;100306.81;;;30.77;43.82
31121;BME280;17770;45.966;13.632;2023-07-13T05:51:18;100311.16;;;30.78;43.69
31121;BME280;17770;45.966;13.632;2023-07-13T05:53:44;100315.66;;;30.78;43.84
31121;BME280;17770;45.966;13.632;2023-07-13T05:56:10;100310.19;;;30.79;43.70
31121;BME280;17770;45.966;13.632;2023-07-13T05:58:36;100305.00;;;30.78;43.29
31121;BME280;17770;45.966;13.632;2023-07-13T06:01:06;100307.00;;;30.76;43.58
31121;BME280;17770;45.966;13.632;2023-07-13T06:03:32;100307.00;;;30.76;43.35
31121;BME280;17770;45.966;13.632;2023-07-13T06:05:58;100308.81;;;30.75;43.48
31121;BME280;17770;45.966;13.632;2023-07-13T06:08:27;100312.50;;;30.74;43.42
31121;BME280;17770;45.966;13.632;2023-07-13T06:10:53;100323.97;;;30.75;43.30
31121;BME280;17770;45.966;13.632;2023-07-13T06:13:19;100317.84;;;30.74;43.71
31121;BME280;17770;45.966;13.632;2023-07-13T06:15:48;100328.63;;;30.73;43.43
31121;BME280;17770;45.966;13.632;2023-07-13T06:18:14;100320.63;;;30.73;43.32
31121;BME280;17770;45.966;13.632;2023-07-13T06:20:41;100312.66;;;30.73;43.33
31121;BME280;17770;45.966;13.632;2023-07-13T06:23:06;100319.00;;;30.72;43.56
31121;BME280;17770;45.966;13.632;2023-07-13T06:25:32;100324.50;;;30.70;43.58
31121;BME280;17770;45.966;13.632;2023-07-13T06:27:58;100325.34;;;30.71;43.40
31121;BME280;17770;45.966;13.632;2023-07-13T06:30:24;100317.53;;;30.69;43.58
31121;BME280;17770;45.966;13.632;2023-07-13T06:32:50;100322.84;;;30.69;43.50
31121;BME280;17770;45.966;13.632;2023-07-13T06:35:16;100312.19;;;30.69;43.48
31121;BME280;17770;45.966;13.632;2023-07-13T06:37:42;100304.38;;;30.68;43.97
31121;BME280;17770;45.966;13.632;2023-07-13T06:40:08;100305.19;;;30.68;43.58
31121;BME280;17770;45.966;13.632;2023-07-13T06:42:34;100309.84;;;30.66;43.56
31121;BME280;17770;45.966;13.632;2023-07-13T06:44:59;100309.72;;;30.68;43.96
31121;BME280;17770;45.966;13.632;2023-07-13T06:47:26;100302.69;;;30.67;44.09
31121;BME280;17770;45.966;13.632;2023-07-13T06:49:52;100311.53;;;30.67;44.24
31121;BME280;17770;45.966;13.632;2023-07-13T06:52:18;100319.53;;;30.67;43.95
31121;BME280;17770;45.966;13.632;2023-07-13T06:54:44;100317.69;;;30.68;43.91
31121;BME280;17770;45.966;13.632;2023-07-13T06:57:09;100321.34;;;30.67;43.47
31121;BME280;17770;45.966;13.632;2023-07-13T06:59:35;100324.00;;;30.67;43.59
31121;BME280;17770;45.966;13.632;2023-07-13T07:02:01;100325.84;;;30.66;44.02
31121;BME280;17770;45.966;13.632;2023-07-13T07:04:27;100323.84;;;30.68;43.75
31121;BME280;17770;45.966;13.632;2023-07-13T07:06:53;100324.69;;;30.69;43.57
31121;BME280;17770;45.966;13.632;2023-07-13T07:09:21;100322.00;;;30.69;44.10
31121;BME280;17770;45.966;13.632;2023-07-13T07:11:53;100324.00;;;30.67;43.83
31121;BME280;17770;45.966;13.632;2023-07-13T07:14:19;100319.16;;;30.70;43.59
31121;BME280;17770;45.966;13.632;2023-07-13T07:16:45;100320.19;;;30.69;43.62
31121;BME280;17770;45.966;13.632;2023-07-13T07:19:12;100315.66;;;30.70;44.23
31121;BME280;17770;45.966;13.632;2023-07-13T07:21:38;100315.84;;;30.68;43.70
31121;BME280;17770;45.966;13.632;2023-07-13T07:24:04;100310.50;;;30.68;43.98
31121;BME280;17770;45.966;13.632;2023-07-13T07:26:30;100310.50;;;30.68;44.20
31121;BME280;17770;45.966;13.632;2023-07-13T07:28:56;100301.88;;;30.66;43.70
31121;BME280;17770;45.966;13.632;2023-07-13T07:31:22;100302.53;;;30.68;43.78
31121;BME280;17770;45.966;13.632;2023-07-13T07:33:48;100299.19;;;30.66;44.00
31121;BME280;17770;45.966;13.632;2023-07-13T07:36:15;100305.53;;;30.65;44.02
31121;BME280;17770;45.966;13.632;2023-07-13T07:38:42;100309.84;;;30.66;44.00
31121;BME280;17770;45.966;13.632;2023-07-13T07:41:07;100309.84;;;30.66;43.72
31121;BME280;17770;45.966;13.632;2023-07-13T07:43:34;100304.72;;;30.64;44.35
31121;BME280;17770;45.966;13.632;2023-07-13T07:46:00;100301.06;;;30.66;43.97
31121;BME280;17770;45.966;13.632;2023-07-13T07:48:25;100309.84;;;30.66;43.96
31121;BME280;17770;45.966;13.632;2023-07-13T07:50:51;100300.88;;;30.67;44.37
31121;BME280;17770;45.966;13.632;2023-07-13T07:53:17;100298.41;;;30.66;43.94
31121;BME280;17770;45.966;13.632;2023-07-13T07:55:43;100288.56;;;30.66;43.96
31121;BME280;17770;45.966;13.632;2023-07-13T07:58:09;100286.72;;;30.67;44.04
31121;BME280;17770;45.966;13.632;2023-07-13T08:00:35;100289.38;;;30.67;44.59
31121;BME280;17770;45.966;13.632;2023-07-13T08:03:01;100303.53;;;30.67;44.75
31121;BME280;17770;45.966;13.632;2023-07-13T08:05:27;100298.03;;;30.69;43.96
31121;BME280;17770;45.966;13.632;2023-07-13T08:07:53;100291.22;;;30.66;44.88
31121;BME280;17770;45.966;13.632;2023-07-13T08:10:19;100296.38;;;30.68;44.62
31121;BME280;17770;45.966;13.632;2023-07-13T08:12:45;100300.69;;;30.69;44.55
31121;BME280;17770;45.966;13.632;2023-07-13T08:15:12;100291.69;;;30.70;44.06
31121;BME280;17770;45.966;13.632;2023-07-13T08:17:38;100293.38;;;30.71;44.35
31121;BME280;17770;45.966;13.632;2023-07-13T08:20:04;100287.22;;;30.70;44.52
31121;BME280;17770;45.966;13.632;2023-07-13T08:22:30;100286.38;;;30.70;44.07
31121;BME280;17770;45.966;13.632;2023-07-13T08:24:56;100295.03;;;30.72;44.21
31121;BME280;17770;45.966;13.632;2023-07-13T08:27:25;100281.53;;;30.73;44.14
31121;BME280;17770;45.966;13.632;2023-07-13T08:29:51;100277.22;;;30.72;44.87
31121;BME280;17770;45.966;13.632;2023-07-13T08:32:18;100281.53;;;30.73;44.47
31121;BME280;17770;45.966;13.632;2023-07-13T08:34:44;100288.53;;;30.74;44.19
31121;BME280;17770;45.966;13.632;2023-07-13T08:37:10;100292.19;;;30.73;44.24
31121;BME280;17770;45.966;13.632;2023-07-13T08:39:35;100302.16;;;30.71;44.42
31121;BME280;17770;45.966;13.632;2023-07-13T08:42:04;100309.19;;;30.72;44.42
31121;BME280;17770;45.966;13.632;2023-07-13T08:44:44;100306.50;;;30.72;44.99
31121;BME280;17770;45.966;13.632;2023-07-13T08:47:15;100306.50;;;30.72;45.08
31121;BME280;17770;45.966;13.632;2023-07-13T08:49:42;100310.16;;;30.71;44.57
31121;BME280;17770;45.966;13.632;2023-07-13T08:52:26;100309.19;;;30.72;44.97
31121;BME280;17770;45.966;13.632;2023-07-13T08:54:55;100310.16;;;30.71;44.67
31121;BME280;17770;45.966;13.632;2023-07-13T08:57:25;100312.66;;;30.73;45.23
31121;BME280;17770;45.966;13.632;2023-07-13T08:59:55;100323.31;;;30.73;45.10
31121;BME280;17770;45.966;13.632;2023-07-13T09:05:04;100317.84;;;30.74;45.25
31121;BME280;17770;45.966;13.632;2023-07-13T09:10:18;100330.31;;;30.74;45.17
31121;BME280;17770;45.966;13.632;2023-07-13T09:15:31;100322.97;;;30.76;45.52
31121;BME280;17770;45.966;13.632;2023-07-13T09:18:02;100333.63;;;30.76;45.45
31121;BME280;17770;45.966;13.632;2023-07-13T09:20:34;100338.97;;;30.76;45.48
31121;BME280;17770;45.966;13.632;2023-07-13T09:23:03;100331.78;;;30.76;45.05
31121;BME280;17770;45.966;13.632;2023-07-13T09:25:31;100331.63;;;30.78;45.42
31121;BME280;17770;45.966;13.632;2023-07-13T09:28:11;100318.31;;;30.78;45.54
31121;BME280;17770;45.966;13.632;2023-07-13T09:30:43;100315.50;;;30.79;45.09
31121;BME280;17770;45.966;13.632;2023-07-13T09:33:10;100324.31;;;30.80;45.49
31121;BME280;17770;45.966;13.632;2023-07-13T09:35:36;100323.31;;;30.81;45.06
31121;BME280;17770;45.966;13.632;2023-07-13T09:38:18;100323.31;;;30.81;44.96
31121;BME280;17770;45.966;13.632;2023-07-13T09:43:14;100341.59;;;30.84;44.99
31121;BME280;17770;45.966;13.632;2023-07-13T09:45:41;100338.94;;;30.84;45.34
31121;BME280;17770;45.966;13.632;2023-07-13T09:48:11;100347.13;;;30.82;45.02
31121;BME280;17770;45.966;13.632;2023-07-13T09:50:39;100349.59;;;30.84;45.21
31121;BME280;17770;45.966;13.632;2023-07-13T09:53:09;100358.44;;;30.84;44.90
31121;BME280;17770;45.966;13.632;2023-07-13T09:55:37;100358.44;;;30.84;44.96
31121;BME280;17770;45.966;13.632;2023-07-13T10:00:30;100327.47;;;31.51;43.44
31121;BME280;17770;45.966;13.632;2023-07-13T10:05:37;100330.16;;;31.65;43.17
31121;BME280;17770;45.966;13.632;2023-07-13T10:08:03;100341.31;;;31.69;43.43
31121;BME280;17770;45.966;13.632;2023-07-13T10:10:29;100321.47;;;31.71;43.45
31121;BME280;17770;45.966;13.632;2023-07-13T10:12:55;100323.94;;;31.73;43.12
31121;BME280;17770;45.966;13.632;2023-07-13T10:15:22;100323.94;;;31.73;43.58
31121;BME280;17770;45.966;13.632;2023-07-13T10:17:49;100323.56;;;31.76;43.65
31121;BME280;17770;45.966;13.632;2023-07-13T10:20:16;100314.53;;;31.77;43.43
31121;BME280;17770;45.966;13.632;2023-07-13T10:22:50;100311.69;;;31.78;43.23
31121;BME280;17770;45.966;13.632;2023-07-13T10:25:21;100294.69;;;31.79;43.67
31121;BME280;17770;45.966;13.632;2023-07-13T10:27:51;100302.31;;;31.82;43.47
31121;BME280;17770;45.966;13.632;2023-07-13T10:30:22;100295.88;;;31.77;43.36
31121;BME280;17770;45.966;13.632;2023-07-13T10:32:51;100280.50;;;31.79;43.31
31121;BME280;17770;45.966;13.632;2023-07-13T10:35:19;100278.69;;;31.79;43.94
31121;BME280;17770;45.966;13.632;2023-07-13T10:37:53;100279.50;;;31.80;43.57
31121;BME280;17770;45.966;13.632;2023-07-13T10:40:31;100277.47;;;31.82;43.22
31121;BME280;17770;45.966;13.632;2023-07-13T10:42:58;100278.31;;;31.82;43.81
31121;BME280;17770;45.966;13.632;2023-07-13T10:45:27;100283.66;;;31.82;43.70
31121;BME280;17770;45.966;13.632;2023-07-13T10:47:54;100297.00;;;31.82;43.49
31121;BME280;17770;45.966;13.632;2023-07-13T10:50:23;100290.63;;;31.83;43.63
31121;BME280;17770;45.966;13.632;2023-07-13T10:52:51;100288.97;;;31.82;43.69
31121;BME280;17770;45.966;13.632;2023-07-13T10:55:40;100285.97;;;31.86;43.74
31121;BME280;17770;45.966;13.632;2023-07-13T10:58:20;100297.63;;;31.84;43.48
31121;BME280;17770;45.966;13.632;2023-07-13T11:00:48;100308.31;;;31.84;43.73
31121;BME280;17770;45.966;13.632;2023-07-13T11:03:15;100303.66;;;31.87;43.58
31121;BME280;17770;45.966;13.632;2023-07-13T11:05:43;100288.28;;;31.89;43.60
31121;BME280;17770;45.966;13.632;2023-07-13T11:08:19;100292.63;;;31.90;43.46
31121;BME280;17770;45.966;13.632;2023-07-13T11:16:00;100270.25;;;31.91;43.39
31121;BME280;17770;45.966;13.632;2023-07-13T11:18:25;100259.75;;;31.89;43.86
31121;BME280;17770;45.966;13.632;2023-07-13T11:20:51;100259.38;;;31.92;44.06
31121;BME280;17770;45.966;13.632;2023-07-13T11:23:19;100251.38;;;31.92;43.87
31121;BME280;17770;45.966;13.632;2023-07-13T11:25:45;100243.56;;;31.91;43.76
31121;BME280;17770;45.966;13.632;2023-07-13T11:35:36;100227.81;;;31.96;44.47
31121;BME280;17770;45.966;13.632;2023-07-13T11:38:09;100233.78;;;31.98;44.45
31121;BME280;17770;45.966;13.632;2023-07-13T11:40:37;100216.75;;;31.99;44.71
31121;BME280;17770;45.966;13.632;2023-07-13T11:43:06;100212.25;;;31.99;44.76
31121;BME280;17770;45.966;13.632;2023-07-13T11:45:33;100212.91;;;32.01;44.79
31121;BME280;17770;45.966;13.632;2023-07-13T11:48:00;100211.03;;;32.02;44.88
31121;BME280;17770;45.966;13.632;2023-07-13T11:50:27;100221.72;;;32.02;45.04
31121;BME280;17770;45.966;13.632;2023-07-13T11:52:53;100227.06;;;32.02;44.70
31121;BME280;17770;45.966;13.632;2023-07-13T11:55:22;100228.53;;;32.04;44.84
31121;BME280;17770;45.966;13.632;2023-07-13T11:57:50;100237.38;;;32.05;44.49
31121;BME280;17770;45.966;13.632;2023-07-13T12:00:20;100226.72;;;32.05;44.63
31121;BME280;17770;45.966;13.632;2023-07-13T12:02:48;100222.19;;;32.05;45.01
31121;BME280;17770;45.966;13.632;2023-07-13T12:05:15;100230.84;;;32.07;44.75
31121;BME280;17770;45.966;13.632;2023-07-13T12:07:43;100235.16;;;32.08;44.45
31121;BME280;17770;45.966;13.632;2023-07-13T12:12:36;100231.28;;;32.11;44.55
31121;BME280;17770;45.966;13.632;2023-07-13T12:15:06;100234.81;;;32.11;44.54
31121;BME280;17770;45.966;13.632;2023-07-13T12:17:33;100222.91;;;32.14;44.66
31121;BME280;17770;45.966;13.632;2023-07-13T12:19:59;100214.72;;;32.15;44.36
31121;BME280;17770;45.966;13.632;2023-07-13T12:22:26;100207.53;;;32.16;44.58
31121;BME280;17770;45.966;13.632;2023-07-13T12:24:53;100209.63;;;32.20;44.75
31121;BME280;17770;45.966;13.632;2023-07-13T12:27:21;100214.78;;;32.22;44.50
31121;BME280;17770;45.966;13.632;2023-07-13T12:30:21;100209.25;;;32.23;44.34
31121;BME280;17770;45.966;13.632;2023-07-13T12:32:37;100210.09;;;32.24;44.72
31121;BME280;17770;45.966;13.632;2023-07-13T12:35:16;100208.72;;;32.28;44.90
31121;BME280;17770;45.966;13.632;2023-07-13T12:37:43;100208.53;;;32.29;44.64
31121;BME280;17770;45.966;13.632;2023-07-13T12:40:13;100216.34;;;32.31;44.75
31121;BME280;17770;45.966;13.632;2023-07-13T12:42:39;100208.97;;;32.33;44.94
31121;BME280;17770;45.966;13.632;2023-07-13T12:45:27;100196.25;;;32.35;44.70
31121;BME280;17770;45.966;13.632;2023-07-13T12:47:56;100192.38;;;32.37;45.21
31121;BME280;17770;45.966;13.632;2023-07-13T12:50:29;100195.06;;;32.37;45.39
31121;BME280;17770;45.966;13.632;2023-07-13T12:52:56;100202.50;;;32.42;44.94
31121;BME280;17770;45.966;13.632;2023-07-13T12:55:25;100210.34;;;32.43;44.96
31121;BME280;17770;45.966;13.632;2023-07-13T12:57:51;100208.13;;;32.47;44.96
31121;BME280;17770;45.966;13.632;2023-07-13T13:02:50;100220.34;;;32.56;45.04
31121;BME280;17770;45.966;13.632;2023-07-13T13:05:17;100214.88;;;32.43;45.15
31121;BME280;17770;45.966;13.632;2023-07-13T13:07:43;100205.50;;;32.53;44.97
31121;BME280;17770;45.966;13.632;2023-07-13T13:10:12;100194.63;;;32.55;45.00
31121;BME280;17770;45.966;13.632;2023-07-13T13:12:38;100189.34;;;32.61;44.65
31121;BME280;17770;45.966;13.632;2023-07-13T13:15:04;100174.41;;;32.67;44.79
31121;BME280;17770;45.966;13.632;2023-07-13T13:17:32;100169.72;;;32.69;44.85